Time;durP1;ratioP1;P1;durP2;ratioP2;P2;SDS_P1;SDS_P2;PMS_P1;PMS_P2;Temp;Humidity;BMP_temperature;BMP_pressure;BME280_temperature;BME280_humidity;BME280_pressure;Samples;Min_cycle;Max_cycle;Signal;HPM_P1;HPM_P2
2021/04/05 00:02:04;;;;;;;25.63;18.20;;;;;;;7.88;62.62;99786.97;5032417;28;20412;-63
2021/04/05 00:04:38;;;;;;;32.75;19.70;;;;;;;7.88;62.46;99771.50;5014696;28;20045;-63
2021/04/05 00:07:10;;;;;;;33.97;20.38;;;;;;;7.88;62.85;99769.78;5031589;28;20033;-64
2021/04/05 00:09:45;;;;;;;32.08;18.33;;;;;;;7.87;63.20;99762.00;5014654;28;20087;-63
2021/04/05 00:12:19;;;;;;;26.67;17.05;;;;;;;7.86;62.56;99752.53;5014644;28;20047;-63
2021/04/05 00:14:53;;;;;;;27.83;18.40;;;;;;;7.87;62.82;99738.78;5014889;28;20037;-63
2021/04/05 00:17:24;;;;;;;;;;;;;;;7.82;62.60;99733.53;5032332;28;20106;-63
2021/04/05 00:19:57;;;;;;;30.00;18.02;;;;;;;7.83;62.69;99736.97;5014415;28;20356;-64
2021/04/05 00:22:34;;;;;;;28.58;17.08;;;;;;;7.81;62.80;99724.06;5013587;28;20057;-62
2021/04/05 00:25:09;;;;;;;30.83;18.63;;;;;;;7.76;62.95;99713.63;5014706;28;20120;-64
2021/04/05 00:27:43;;;;;;;28.70;17.65;;;;;;;7.78;63.09;99713.66;5014353;28;20029;-64
2021/04/05 00:30:19;;;;;;;32.10;19.45;;;;;;;7.81;62.74;99710.25;5031866;28;20037;-63
2021/04/05 00:32:56;;;;;;;28.50;17.98;;;;;;;7.79;62.78;99710.25;5014488;28;20040;-63
2021/04/05 00:35:29;;;;;;;35.22;17.50;;;;;;;7.80;63.02;99706.81;5014254;28;20046;-64
2021/04/05 00:38:05;;;;;;;26.60;17.70;;;;;;;7.78;63.05;99699.03;5031175;28;20057;-63
2021/04/05 00:40:49;;;;;;;25.63;17.73;;;;;;;7.74;63.16;99699.81;5031414;28;20041;-63
2021/04/05 00:43:22;;;;;;;25.35;17.25;;;;;;;7.76;63.01;99690.41;4997624;28;20128;-63
2021/04/05 00:45:58;;;;;;;28.65;18.60;;;;;;;7.77;63.07;99680.94;5031631;28;20049;-64
2021/04/05 00:48:30;;;;;;;21.83;15.70;;;;;;;7.78;62.99;99682.69;5013902;28;20042;-63
2021/04/05 00:51:07;;;;;;;23.08;15.75;;;;;;;7.77;62.97;99681.84;4997239;28;20082;-63
2021/04/05 00:53:39;;;;;;;27.33;16.48;;;;;;;7.78;62.65;99688.72;5031306;28;20067;-63
2021/04/05 00:56:11;;;;;;;24.90;17.25;;;;;;;7.78;62.71;99677.53;5013979;28;20037;-63
2021/04/05 00:58:44;;;;;;;27.98;16.90;;;;;;;7.78;62.89;99680.13;5013903;28;20049;-63
2021/04/05 01:01:22;;;;;;;25.17;16.25;;;;;;;7.79;62.79;99679.28;4997162;28;20064;-64
2021/04/05 01:03:52;;;;;;;25.88;16.27;;;;;;;7.79;63.21;99671.53;5014010;28;20033;-63
2021/04/05 01:06:29;;;;;;;28.58;16.25;;;;;;;7.77;62.65;99660.31;5031141;28;20498;-64
2021/04/05 01:09:00;;;;;;;36.85;16.10;;;;;;;7.78;62.55;99662.91;5013591;28;20110;-63
2021/04/05 01:11:35;;;;;;;31.83;18.63;;;;;;;7.74;63.16;99658.56;5013680;28;20472;-63
2021/04/05 01:14:13;;;;;;;25.20;16.33;;;;;;;7.77;62.84;99652.56;5013352;28;20073;-63
2021/04/05 01:16:45;;;;;;;24.42;17.40;;;;;;;7.76;62.82;99646.56;5013424;28;20113;-62
2021/04/05 01:19:19;;;;;;;30.65;16.90;;;;;;;7.74;63.24;99631.88;4996795;28;20062;-63
2021/04/05 01:21:53;;;;;;;27.23;18.35;;;;;;;7.73;62.64;99624.97;5013052;28;20029;-64
2021/04/05 01:24:27;;;;;;;28.73;18.27;;;;;;;7.72;62.63;99626.69;5030927;28;20033;-63
2021/04/05 01:26:58;;;;;;;27.30;18.08;;;;;;;7.72;62.75;99616.38;4997688;28;20091;-62
2021/04/05 01:29:32;;;;;;;22.60;16.23;;;;;;;7.71;63.07;99604.31;4997446;28;20041;-62
2021/04/05 01:32:04;;;;;;;25.55;16.75;;;;;;;7.70;63.29;99597.41;5030781;28;20038;-62
2021/04/05 01:34:41;;;;;;;24.95;17.08;;;;;;;7.71;62.81;99599.16;5013350;28;20085;-62
2021/04/05 01:39:15;;;;;;;25.55;17.30;;;;;;;7.68;62.94;99588.75;5132189;27;20374;-63
2021/04/05 01:41:49;;;;;;;34.63;19.00;;;;;;;7.68;62.95;99588.75;5113782;28;20104;-64
2021/04/05 01:44:28;;;;;;;31.17;19.42;;;;;;;7.68;62.75;99577.59;5132178;28;20063;-64
2021/04/05 01:47:01;;;;;;;26.38;18.48;;;;;;;7.66;63.22;99574.97;5147872;27;20120;-64
2021/04/05 01:49:38;;;;;;;26.40;17.60;;;;;;;7.65;63.01;99577.53;5131747;28;20089;-64
2021/04/05 01:52:18;;;;;;;25.17;16.90;;;;;;;7.64;63.21;99578.34;5132138;28;20108;-64
2021/04/05 01:54:52;;;;;;;26.67;17.45;;;;;;;7.64;63.22;99565.47;5131696;28;20103;-64
2021/04/05 01:57:34;;;;;;;30.00;18.23;;;;;;;7.63;63.23;99559.41;5096449;28;20036;-63
2021/04/05 02:00:23;;;;;;;26.00;17.50;;;;;;;7.59;62.94;99549.91;5113284;28;20031;-64
2021/04/05 02:02:58;;;;;;;27.20;16.88;;;;;;;7.61;62.83;99571.44;5131755;28;20058;-64
2021/04/05 02:05:36;;;;;;;29.17;18.67;;;;;;;7.59;63.01;99566.22;5131288;28;20032;-64
2021/04/05 02:08:14;;;;;;;27.13;16.90;;;;;;;7.58;62.78;99563.63;5112893;28;20036;-64
2021/04/05 02:10:45;;;;;;;31.70;17.27;;;;;;;7.57;63.10;99536.09;5112657;28;20043;-63
2021/04/05 02:13:24;;;;;;;30.92;19.00;;;;;;;7.57;62.99;99529.22;5095615;28;20042;-64
2021/04/05 02:15:53;;;;;;;24.48;16.08;;;;;;;7.58;63.04;99522.38;5112817;28;20100;-64
2021/04/05 02:18:28;;;;;;;29.00;17.48;;;;;;;7.55;62.93;99518.00;5095595;28;20063;-64
2021/04/05 02:21:02;;;;;;;26.48;16.63;;;;;;;7.57;62.83;99511.16;5113057;28;20420;-64
2021/04/05 02:23:38;;;;;;;27.52;17.20;;;;;;;7.54;63.39;99511.13;5112582;28;20031;-64
2021/04/05 02:26:15;;;;;;;30.88;16.23;;;;;;;7.53;63.11;99511.97;5131206;28;20039;-64
2021/04/05 02:28:53;;;;;;;26.63;15.35;;;;;;;7.54;63.21;99505.09;5131177;28;20080;-64
2021/04/05 02:31:26;;;;;;;24.02;15.57;;;;;;;7.54;62.84;99498.25;5112485;28;20032;-63
2021/04/05 02:34:05;;;;;;;23.23;15.57;;;;;;;7.52;62.91;99489.59;5112654;28;20059;-64
2021/04/05 02:36:39;;;;;;;24.63;16.15;;;;;;;7.51;63.05;99477.53;5112405;28;20110;-64
2021/04/05 02:39:14;;;;;;;24.63;15.40;;;;;;;7.51;63.40;99463.75;5130789;28;20035;-64
2021/04/05 02:41:52;;;;;;;23.02;15.20;;;;;;;7.50;62.99;99462.91;5112092;28;20482;-64
2021/04/05 02:44:21;;;;;;;25.88;15.30;;;;;;;7.50;62.96;99460.34;5147291;27;20042;-63
2021/04/05 02:46:55;;;;;;;33.33;17.35;;;;;;;7.49;62.96;99455.13;5095181;28;20027;-64
2021/04/05 02:49:30;;;;;;;20.63;14.27;;;;;;;7.50;63.10;99459.44;5088220;28;20035;-64
2021/04/05 02:52:01;;;;;;;26.42;15.02;;;;;;;7.52;63.31;99457.75;5098823;28;20061;-63
2021/04/05 02:54:36;;;;;;;26.40;15.65;;;;;;;7.51;63.18;99454.34;5099158;28;20119;-63
2021/04/05 02:57:09;;;;;;;27.45;16.08;;;;;;;7.48;63.05;99443.94;5117113;28;20118;-63
2021/04/05 02:59:43;;;;;;;23.80;14.73;;;;;;;7.50;63.27;99437.13;5098751;28;20032;-63
2021/04/05 03:02:13;;;;;;;27.10;14.45;;;;;;;7.50;62.99;99431.97;5115615;28;20047;-63
2021/04/05 03:04:45;;;;;;;22.75;14.52;;;;;;;7.48;63.17;99428.47;5081335;28;20039;-63
2021/04/05 03:07:17;;;;;;;20.10;13.68;;;;;;;7.47;63.34;99431.91;5098644;28;20058;-63
2021/04/05 03:09:48;;;;;;;24.67;14.05;;;;;;;7.46;63.10;99425.00;5116836;28;20031;-63
2021/04/05 03:12:25;;;;;;;;;;;;;;;7.46;63.00;99425.00;5098950;28;20514;-63
2021/04/05 03:15:03;;;;;;;23.85;14.50;;;;;;;7.44;63.18;99411.22;5098635;28;20375;-64
2021/04/05 03:17:40;;;;;;;24.15;13.88;;;;;;;7.43;63.25;99414.63;5097735;28;20550;-63
2021/04/05 03:22:26;;;;;;;22.13;14.02;;;;;;;7.40;63.06;99407.72;5111942;27;20544;-63
2021/04/05 03:25:06;;;;;;;22.63;13.60;;;;;;;7.42;62.76;99406.03;5076284;28;20044;-64
2021/04/05 03:27:37;;;;;;;23.02;12.60;;;;;;;7.41;63.36;99408.56;5111301;28;20035;-64
2021/04/05 03:30:20;;;;;;;20.85;12.68;;;;;;;7.41;63.12;99413.72;5111526;28;20067;-64
2021/04/05 03:32:54;;;;;;;25.80;12.63;;;;;;;7.40;62.99;99401.66;5111329;28;20043;-64
2021/04/05 03:35:29;;;;;;;19.83;13.27;;;;;;;7.43;62.91;99414.63;5111151;28;20032;-62
2021/04/05 03:38:02;;;;;;;26.10;12.70;;;;;;;7.40;63.44;99383.63;5076157;28;20044;-64
2021/04/05 03:40:33;;;;;;;24.73;11.80;;;;;;;7.41;63.34;99390.53;5111544;28;20076;-64
2021/04/05 03:43:19;;;;;;;26.45;13.50;;;;;;;7.42;63.08;99379.38;5093110;28;20035;-64
2021/04/05 03:46:05;;;;;;;25.27;13.70;;;;;;;7.41;63.34;99375.06;5111228;28;20037;-62
2021/04/05 03:48:39;;;;;;;23.15;12.98;;;;;;;7.41;63.35;99377.63;5076168;28;20434;-62
2021/04/05 03:51:20;;;;;;;21.50;13.57;;;;;;;7.40;63.08;99381.03;5110393;28;20035;-62
2021/04/05 03:54:01;;;;;;;21.02;12.40;;;;;;;7.40;63.28;99386.19;5076203;28;20043;-64
2021/04/05 03:56:37;;;;;;;22.52;11.80;;;;;;;7.42;63.21;99381.94;5110961;28;20040;-62
2021/04/05 03:59:12;;;;;;;25.23;13.13;;;;;;;7.40;63.00;99379.34;5092567;28;20123;-62
2021/04/05 04:01:49;;;;;;;25.60;12.80;;;;;;;7.39;63.29;99375.03;5092605;28;20024;-63
2021/04/05 04:04:30;;;;;;;20.17;13.13;;;;;;;7.40;63.38;99374.19;5110698;28;20483;-64
2021/04/05 04:07:21;;;;;;;23.80;12.35;;;;;;;7.41;63.53;99351.84;5075673;28;20036;-64
2021/04/05 04:09:50;;;;;;;19.67;12.25;;;;;;;7.42;63.05;99353.59;5111032;28;20048;-64
2021/04/05 04:12:19;;;;;;;22.90;13.18;;;;;;;7.38;63.41;99347.50;5110843;28;20055;-63
2021/04/05 04:14:54;;;;;;;32.83;13.88;;;;;;;7.39;63.44;99328.63;5075227;28;20118;-64
2021/04/05 04:17:27;;;;;;;24.52;13.65;;;;;;;7.38;63.31;99333.78;5092475;28;20126;-64
2021/04/05 04:20:02;;;;;;;19.98;13.45;;;;;;;7.35;63.43;99333.72;5091885;28;20040;-64
2021/04/05 04:24:02;;;;;;;23.02;13.75;;;;;;;7.36;63.01;99327.72;5132039;27;20563;-64
2021/04/05 04:26:39;;;;;;;23.27;13.15;;;;;;;7.35;63.37;99323.41;5113929;28;20027;-62
2021/04/05 04:29:21;;;;;;;22.75;14.20;;;;;;;7.35;63.42;99320.81;5131690;28;20107;-62
2021/04/05 04:32:00;;;;;;;24.80;15.00;;;;;;;7.34;63.26;99314.78;5132073;28;20035;-62
2021/04/05 04:34:40;;;;;;;26.45;14.90;;;;;;;7.35;63.12;99310.50;5113039;28;20577;-62
2021/04/05 04:37:17;;;;;;;28.83;14.98;;;;;;;7.35;63.51;99307.94;5096068;28;20498;-62
2021/04/05 04:39:54;;;;;;;29.05;15.02;;;;;;;7.35;63.29;99295.03;5113691;28;20036;-64
2021/04/05 04:42:33;;;;;;;26.67;14.38;;;;;;;7.35;63.36;99287.31;5131808;28;20478;-64
2021/04/05 04:45:09;;;;;;;27.60;14.90;;;;;;;7.32;63.55;99289.00;5131811;28;20043;-64
2021/04/05 04:47:46;;;;;;;26.48;15.02;;;;;;;7.32;63.31;99280.38;5113252;28;20035;-64
2021/04/05 04:50:21;;;;;;;22.98;14.68;;;;;;;7.30;63.52;99282.09;5131519;28;20043;-64
2021/04/05 04:52:55;;;;;;;29.45;15.15;;;;;;;7.28;63.45;99270.88;5131537;28;20111;-64
2021/04/05 04:55:25;;;;;;;26.48;16.17;;;;;;;7.29;63.73;99270.88;5131151;28;20074;-62
2021/04/05 04:58:09;;;;;;;34.70;16.65;;;;;;;7.31;63.38;99273.50;5095837;28;20387;-62
2021/04/05 05:00:46;;;;;;;25.55;15.20;;;;;;;7.30;63.77;99271.78;5112935;28;20479;-64
2021/04/05 05:03:27;;;;;;;25.23;15.77;;;;;;;7.31;63.71;99273.50;5112843;28;20040;-63
2021/04/05 05:06:07;;;;;;;27.92;15.55;;;;;;;7.30;63.14;99264.03;5147107;27;20040;-62
2021/04/05 05:08:45;;;;;;;37.35;17.80;;;;;;;7.31;63.08;99269.22;5113211;28;20498;-62
2021/04/05 05:11:19;;;;;;;26.73;16.25;;;;;;;7.31;63.13;99263.19;5147361;27;20047;-64
2021/04/05 05:14:01;;;;;;;30.85;15.50;;;;;;;7.30;63.74;99272.63;5113090;28;20035;-62
2021/04/05 05:16:41;;;;;;;28.08;17.13;;;;;;;7.31;63.83;99274.38;5112990;28;20429;-62
2021/04/05 05:19:08;;;;;;;31.92;16.60;;;;;;;7.32;63.77;99257.16;5143081;27;20420;-62
2021/04/05 05:21:41;;;;;;;32.60;17.05;;;;;;;7.29;63.42;99260.56;5133015;27;20042;-62
2021/04/05 05:24:10;;;;;;;27.92;17.02;;;;;;;7.31;63.89;99252.88;5115686;27;20031;-61
2021/04/05 05:26:36;;;;;;;30.63;17.45;;;;;;;7.31;63.65;99247.72;5115916;27;20050;-62
2021/04/05 05:29:17;;;;;;;28.42;17.45;;;;;;;7.29;63.57;99249.41;5132510;27;20505;-62
2021/04/05 05:31:49;;;;;;;36.45;17.80;;;;;;;7.29;63.63;99252.00;5133239;27;20039;-61
2021/04/05 05:34:22;;;;;;;29.95;17.23;;;;;;;7.29;63.85;99249.41;5143026;27;20038;-62
2021/04/05 05:36:48;;;;;;;31.80;17.75;;;;;;;7.29;63.91;99245.13;5137366;27;20054;-62
2021/04/05 05:39:18;;;;;;;28.73;16.65;;;;;;;7.28;63.48;99248.53;5101877;27;20043;-62
2021/04/05 05:42:33;;;;;;;36.50;18.60;;;;;;;7.28;63.61;99238.22;5137013;27;20467;-62
2021/04/05 05:45:08;;;;;;;28.98;16.92;;;;;;;7.27;63.66;99233.91;5071687;27;20047;-62
2021/04/05 05:47:55;;;;;;;34.28;18.92;;;;;;;7.28;63.60;99240.78;5118918;27;20035;-62
2021/04/05 05:50:40;;;;;;;34.72;17.45;;;;;;;7.26;63.80;99228.75;5085152;27;20043;-62
2021/04/05 05:53:19;;;;;;;27.73;17.23;;;;;;;7.26;63.84;99218.44;5101663;27;20441;-64
2021/04/05 05:56:07;;;;;;;37.00;17.30;;;;;;;7.23;64.06;99215.78;5101633;27;20038;-63
2021/04/05 05:59:23;;;;;;;31.80;16.85;;;;;;;7.22;63.90;99217.53;5136941;27;20038;-64
2021/04/05 06:02:07;;;;;;;31.45;18.38;;;;;;;7.23;63.70;99219.25;5094275;27;20066;-64
2021/04/05 06:04:51;;;;;;;36.70;18.33;;;;;;;7.24;63.87;99213.22;5118350;27;20505;-65
2021/04/05 06:07:29;;;;;;;36.53;19.13;;;;;;;7.25;63.78;99214.13;5118375;27;20039;-63
2021/04/05 06:10:18;;;;;;;31.65;18.23;;;;;;;7.24;63.77;99213.22;5101073;27;20039;-64
2021/04/05 06:12:53;;;;;;;44.58;20.80;;;;;;;7.25;63.94;99212.38;5100980;27;20028;-63
2021/04/05 06:15:27;;;;;;;41.47;18.92;;;;;;;7.25;63.86;99217.53;5117688;27;20045;-64
2021/04/05 06:18:04;;;;;;;35.05;19.92;;;;;;;7.28;63.78;99215.03;5096787;27;20034;-64
2021/04/05 06:20:38;;;;;;;32.97;18.95;;;;;;;7.29;64.24;99213.31;5101337;27;20096;-64
2021/04/05 06:23:24;;;;;;;37.97;18.33;;;;;;;7.29;63.82;99219.34;5117892;27;20044;-64
2021/04/05 06:26:08;;;;;;;38.60;19.88;;;;;;;7.29;63.82;99198.72;5118440;27;20027;-63
2021/04/05 06:28:56;;;;;;;33.80;19.08;;;;;;;7.28;63.49;99207.28;5117896;27;20043;-63
2021/04/05 06:31:44;;;;;;;30.10;17.73;;;;;;;7.27;63.68;99194.38;5117827;27;20035;-63
2021/04/05 06:34:30;;;;;;;34.80;17.40;;;;;;;7.27;63.99;99184.94;5118248;27;20062;-63
2021/04/05 06:37:14;;;;;;;33.10;18.92;;;;;;;7.25;63.69;99183.19;5100962;27;20401;-63
2021/04/05 06:39:50;;;;;;;38.95;19.73;;;;;;;7.28;63.81;99178.09;5100876;27;20035;-63
2021/04/05 06:42:39;;;;;;;36.05;20.60;;;;;;;7.26;64.17;99190.06;5117383;27;20035;-63
2021/04/05 06:45:38;;;;;;;38.58;18.67;;;;;;;7.26;64.20;99184.91;5135420;27;20027;-63
2021/04/05 06:48:16;;;;;;;31.77;17.63;;;;;;;7.29;63.61;99187.56;5135791;27;20115;-63
2021/04/05 06:51:22;;;;;;;35.55;20.02;;;;;;;7.27;63.74;99182.34;5101487;27;20114;-63
2021/04/05 06:54:21;;;;;;;34.88;19.63;;;;;;;7.28;63.97;99172.94;5099328;27;20051;-63
2021/04/05 06:57:12;;;;;;;35.03;19.65;;;;;;;7.28;64.33;99178.09;5135556;27;20035;-63
2021/04/05 06:59:50;;;;;;;32.20;19.92;;;;;;;7.26;64.35;99167.72;5100814;27;20035;-63
2021/04/05 07:02:54;;;;;;;38.03;20.50;;;;;;;7.26;64.19;99165.16;5117190;27;20488;-63
2021/04/05 07:05:36;;;;;;;;;;;;;;;7.24;64.14;99161.69;5117875;27;20035;-63
2021/04/05 07:08:15;;;;;;;37.38;20.15;;;;;;;7.23;63.97;99144.50;5117209;27;19964;-63
2021/04/05 07:11:04;;;;;;;32.92;19.65;;;;;;;7.24;64.08;99153.94;5117359;27;20046;-63
2021/04/05 07:13:38;;;;;;;41.55;21.13;;;;;;;7.28;64.10;99144.56;5100071;27;20542;-63
2021/04/05 07:16:42;;;;;;;39.78;20.13;;;;;;;7.25;64.06;99135.06;5117110;27;20023;-63
2021/04/05 07:19:33;;;;;;;39.63;20.40;;;;;;;7.27;64.40;99141.13;5099826;27;20043;-63
2021/04/05 07:22:17;;;;;;;40.47;20.77;;;;;;;7.28;64.75;99134.25;5134496;27;20468;-63
2021/04/05 07:24:51;;;;;;;38.80;20.48;;;;;;;7.28;64.48;99135.13;5100303;27;20084;-63
2021/04/05 07:27:37;;;;;;;41.85;21.70;;;;;;;7.29;64.22;99138.56;5099974;27;20159;-63
2021/04/05 07:30:14;;;;;;;32.00;21.27;;;;;;;7.31;64.25;99137.75;5117279;27;20107;-63
2021/04/05 07:33:13;;;;;;;39.50;20.70;;;;;;;7.30;64.73;99135.16;5100113;27;20046;-63
2021/04/05 07:36:13;;;;;;;39.00;20.90;;;;;;;7.31;64.11;99134.31;5117425;27;20031;-63
2021/04/05 07:39:14;;;;;;;36.50;20.50;;;;;;;7.32;64.60;99131.75;5127596;27;20043;-63
2021/04/05 07:41:56;;;;;;;39.65;21.17;;;;;;;7.33;64.37;99135.19;5099787;27;20057;-63
2021/04/05 07:44:42;;;;;;;40.22;20.40;;;;;;;7.34;64.73;99130.91;5116587;27;20039;-63
2021/04/05 07:47:30;;;;;;;36.50;20.45;;;;;;;7.32;64.36;99115.41;5135420;27;20035;-63
2021/04/05 07:50:17;;;;;;;31.52;19.58;;;;;;;7.31;64.69;99119.69;5116469;27;20046;-63
2021/04/05 07:53:02;;;;;;;34.55;20.13;;;;;;;7.33;64.27;99106.81;5099876;27;20070;-63
2021/04/05 07:55:45;;;;;;;41.67;20.00;;;;;;;7.33;64.76;99117.13;5100469;27;20090;-64
2021/04/05 07:58:42;;;;;;;33.45;19.23;;;;;;;7.34;64.78;99105.13;5134646;27;20038;-63
2021/04/05 08:01:35;;;;;;;34.58;19.92;;;;;;;7.34;64.92;99107.72;5134860;27;20035;-64
2021/04/05 08:04:27;;;;;;;35.92;17.98;;;;;;;7.34;64.70;99107.72;5116505;27;20054;-63
2021/04/05 08:07:05;;;;;;;31.92;19.63;;;;;;;7.35;64.48;99099.13;5134843;27;20039;-63
2021/04/05 08:09:52;;;;;;;33.38;17.73;;;;;;;7.34;64.90;99105.13;5116881;27;20027;-63
2021/04/05 08:12:59;;;;;;;46.33;20.50;;;;;;;7.34;64.89;99112.88;5134861;27;20035;-63
2021/04/05 08:15:56;;;;;;;36.55;19.45;;;;;;;7.34;64.53;99129.19;5133885;27;20043;-63
2021/04/05 08:18:36;;;;;;;33.17;17.55;;;;;;;7.31;64.97;99127.44;5091967;27;20043;-64
2021/04/05 08:21:15;;;;;;;27.33;16.08;;;;;;;7.29;65.40;99148.88;5099502;28;20466;-63
2021/04/05 08:24:05;;;;;;;32.90;18.23;;;;;;;7.29;65.22;99172.09;5134365;28;20042;-64
2021/04/05 08:26:44;;;;;;;20.67;11.95;;;;;;;7.23;65.23;99167.72;5115904;28;20135;-64
2021/04/05 08:29:23;;;;;;;21.38;12.52;;;;;;;7.23;65.19;99166.81;5116396;28;20489;-64
2021/04/05 08:32:18;;;;;;;26.45;13.32;;;;;;;7.21;65.41;99195.16;5134468;28;20043;-63
2021/04/05 08:35:02;;;;;;;23.30;10.85;;;;;;;7.21;65.34;99187.44;5098991;28;20084;-63
2021/04/05 08:38:03;;;;;;;17.85;10.70;;;;;;;7.23;65.09;99206.38;5099450;28;20135;-63
2021/04/05 08:40:43;;;;;;;13.82;9.80;;;;;;;7.21;65.39;99208.06;5099015;28;20043;-63
2021/04/05 08:43:17;;;;;;;17.67;8.93;;;;;;;7.21;65.46;99212.31;5134005;28;20063;-64
2021/04/05 08:46:15;;;;;;;15.40;9.07;;;;;;;7.20;64.93;99221.78;5134109;28;20031;-64
2021/04/05 08:48:55;;;;;;;13.68;7.50;;;;;;;7.15;65.46;99211.41;5133313;28;20486;-63
2021/04/05 08:51:47;;;;;;;13.82;7.47;;;;;;;7.17;65.07;99221.72;5115936;28;20100;-63
2021/04/05 08:54:35;;;;;;;14.65;7.55;;;;;;;7.14;65.23;99226.81;5115875;28;20031;-63
2021/04/05 08:57:14;;;;;;;13.38;6.50;;;;;;;7.15;65.22;99236.28;5134053;28;20031;-63
2021/04/05 09:00:00;;;;;;;11.32;5.78;;;;;;;7.15;65.12;99236.28;5116588;28;20039;-63
2021/04/05 09:02:41;;;;;;;13.45;5.82;;;;;;;7.14;65.26;99250.00;5116208;28;20031;-63
2021/04/05 09:05:15;;;;;;;10.88;6.30;;;;;;;7.13;65.02;99250.84;5115853;28;20126;-63
2021/04/05 09:08:15;;;;;;;11.60;5.38;;;;;;;7.10;65.59;99243.06;5100035;27;20039;-63
2021/04/05 09:11:06;;;;;;;16.90;5.65;;;;;;;7.10;65.08;99250.78;5137754;27;20050;-63
2021/04/05 09:13:46;;;;;;;8.77;4.78;;;;;;;7.10;65.00;99251.66;5138268;27;20036;-63
2021/04/05 09:16:27;;;;;;;14.98;5.47;;;;;;;7.10;64.94;99255.94;5119692;27;20047;-63
2021/04/05 09:19:24;;;;;;;8.25;4.22;;;;;;;7.09;64.87;99273.13;5119961;27;20031;-63
2021/04/05 09:22:34;;;;;;;10.70;5.38;;;;;;;7.08;65.79;99281.69;5119655;27;20027;-63
2021/04/05 09:25:17;;;;;;;7.70;4.32;;;;;;;7.08;65.14;99286.00;5137422;27;20034;-63
2021/04/05 09:28:03;;;;;;;6.18;3.72;;;;;;;7.05;65.40;99289.38;5137582;27;20035;-63
2021/04/05 09:30:58;;;;;;;6.78;4.05;;;;;;;7.09;65.04;99295.44;5119169;27;20031;-63
2021/04/05 09:33:59;;;;;;;7.00;3.47;;;;;;;7.06;65.53;99309.13;5109684;27;20498;-63
2021/04/05 09:36:51;;;;;;;8.32;3.60;;;;;;;7.04;65.16;99313.38;5102699;27;20084;-63
2021/04/05 09:39:55;;;;;;;5.60;3.70;;;;;;;7.05;65.56;99322.88;5055454;27;20043;-63
2021/04/05 09:42:44;;;;;;;7.30;3.78;;;;;;;7.06;65.22;99336.63;5098199;27;20134;-63
2021/04/05 09:45:41;;;;;;;6.22;2.97;;;;;;;7.05;65.58;99350.34;5119288;27;20039;-63
2021/04/05 09:48:44;;;;;;;5.60;2.75;;;;;;;7.04;65.32;99364.94;5137230;27;20031;-64
2021/04/05 09:51:38;;;;;;;4.75;2.72;;;;;;;7.06;65.66;99375.28;5136766;27;20050;-63
2021/04/05 09:54:21;;;;;;;4.90;3.08;;;;;;;7.10;65.34;99384.78;5119088;27;20112;-63
2021/04/05 09:56:52;;;;;;;4.55;2.78;;;;;;;7.11;65.92;99407.13;5137391;27;20035;-63
2021/04/05 09:59:42;;;;;;;3.67;2.53;;;;;;;7.12;65.63;99407.19;5137280;27;20477;-63
2021/04/05 10:02:14;;;;;;;5.95;2.95;;;;;;;7.11;65.72;99420.91;5118462;27;20039;-63
2021/04/05 10:04:44;;;;;;;6.72;3.33;;;;;;;7.11;65.74;99423.50;5136818;27;20042;-63
2021/04/05 10:07:12;;;;;;;20.90;4.55;;;;;;;7.03;65.73;99431.91;5100831;27;20066;-63
2021/04/05 10:09:41;;;;;;;20.05;4.32;;;;;;;6.98;65.47;99440.41;5118523;27;20110;-63
2021/04/05 10:12:08;;;;;;;25.02;3.67;;;;;;;6.90;65.59;99429.06;5101198;27;20494;-63
2021/04/05 10:14:44;;;;;;;27.10;4.95;;;;;;;6.90;65.42;99436.81;5101370;27;20537;-63
2021/04/05 10:17:12;;;;;;;21.30;2.95;;;;;;;6.88;65.46;99445.31;5100989;27;20063;-63
2021/04/05 10:19:42;;;;;;;19.55;3.72;;;;;;;6.84;66.04;99446.97;5100631;27;20027;-63
2021/04/05 10:22:16;;;;;;;15.52;4.55;;;;;;;6.84;65.40;99446.97;5136567;27;20061;-63
2021/04/05 10:24:49;;;;;;;15.48;3.13;;;;;;;6.84;65.47;99449.53;5118694;27;20027;-63
2021/04/05 10:27:17;;;;;;;13.18;3.55;;;;;;;6.87;65.65;99452.19;5100774;27;20126;-63
2021/04/05 10:29:46;;;;;;;9.73;3.50;;;;;;;6.89;65.76;99459.94;5100827;27;20397;-63
2021/04/05 10:32:22;;;;;;;15.45;4.25;;;;;;;6.86;65.67;99453.88;5100870;27;20035;-63
2021/04/05 10:34:54;;;;;;;12.57;4.25;;;;;;;6.90;65.90;99465.16;5101498;27;20112;-63
2021/04/05 10:37:34;;;;;;;11.93;3.05;;;;;;;6.89;65.75;99462.50;5136328;27;20505;-63
2021/04/05 10:40:06;;;;;;;6.60;2.78;;;;;;;6.90;66.07;99467.72;5136127;27;20039;-63
2021/04/05 10:42:47;;;;;;;15.13;3.55;;;;;;;6.88;65.19;99474.53;5096641;27;20038;-63
2021/04/05 10:45:33;;;;;;;7.82;2.90;;;;;;;6.91;65.59;99474.63;5118261;27;20076;-63
2021/04/05 10:48:19;;;;;;;10.15;3.72;;;;;;;6.87;65.73;99472.81;5117707;27;20134;-63
2021/04/05 10:50:57;;;;;;;10.30;3.58;;;;;;;6.82;65.38;99482.13;5117102;27;20111;-63
2021/04/05 10:53:26;;;;;;;9.20;2.90;;;;;;;6.80;65.90;99489.81;5099899;27;20497;-63
2021/04/05 10:55:56;;;;;;;12.23;2.95;;;;;;;6.75;65.45;99478.53;5100503;27;20514;-63
2021/04/05 10:58:27;;;;;;;13.40;4.15;;;;;;;6.74;65.56;99492.25;5117443;27;20043;-63
2021/04/05 11:01:03;;;;;;;11.75;2.72;;;;;;;6.72;65.66;99487.91;5100378;27;20046;-63
2021/04/05 11:03:31;;;;;;;11.63;3.40;;;;;;;6.70;65.50;99491.31;5099912;27;20401;-63
2021/04/05 11:06:12;;;;;;;9.82;3.22;;;;;;;6.70;65.27;99488.75;5135623;27;20039;-63
2021/04/05 11:08:39;;;;;;;6.28;2.83;;;;;;;6.73;66.03;99492.22;5135592;27;20088;-63
2021/04/05 11:11:13;;;;;;;6.80;2.88;;;;;;;6.71;65.80;99492.19;5099996;27;20034;-63
2021/04/05 11:13:42;;;;;;;6.05;3.22;;;;;;;6.69;65.30;99499.03;5117323;27;20039;-63
2021/04/05 11:16:14;;;;;;;8.35;2.63;;;;;;;6.68;65.45;99503.28;5100082;27;20031;-63
2021/04/05 11:18:53;;;;;;;;;;;;;;;6.67;65.16;99501.53;5101423;27;20500;-63
2021/04/05 11:21:26;;;;;;;9.52;3.85;;;;;;;6.64;65.10;99514.34;5099711;27;20362;-63
2021/04/05 11:23:57;;;;;;;7.32;3.13;;;;;;;6.64;64.99;99511.78;5099682;27;20039;-63
2021/04/05 11:26:28;;;;;;;7.60;2.80;;;;;;;6.62;65.78;99507.44;5116712;27;20184;-62
2021/04/05 11:28:59;;;;;;;7.23;3.60;;;;;;;6.57;65.50;99512.47;5117324;27;20103;-63
2021/04/05 11:31:26;;;;;;;12.68;4.00;;;;;;;6.58;65.41;99509.06;5099225;27;20114;-63
2021/04/05 11:34:00;;;;;;;5.97;3.30;;;;;;;6.58;65.51;99508.19;5135274;27;20076;-63
2021/04/05 11:36:48;;;;;;;11.65;3.47;;;;;;;6.61;65.40;99516.88;5116741;27;20045;-63
2021/04/05 11:39:27;;;;;;;13.02;4.32;;;;;;;6.65;65.41;99515.22;5100082;27;20035;-63
2021/04/05 11:41:54;;;;;;;8.20;2.90;;;;;;;6.62;64.94;99525.44;5116691;27;20114;-63
2021/04/05 11:44:28;;;;;;;8.73;3.45;;;;;;;6.63;65.12;99551.22;5099385;27;20046;-63
2021/04/05 11:46:59;;;;;;;8.15;3.42;;;;;;;6.60;65.09;99558.91;5134858;27;20150;-63
2021/04/05 11:49:36;;;;;;;12.30;3.22;;;;;;;6.53;65.30;99562.16;5099247;27;20116;-63
2021/04/05 11:52:09;;;;;;;5.47;2.58;;;;;;;6.50;65.04;99565.53;5099836;27;20031;-63
2021/04/05 11:54:47;;;;;;;9.70;2.97;;;;;;;6.49;65.00;99555.16;5134717;27;20039;-63
2021/04/05 11:57:21;;;;;;;9.43;3.00;;;;;;;6.48;65.65;99550.84;5134743;27;20053;-63
2021/04/05 12:00:00;;;;;;;9.98;2.97;;;;;;;6.45;65.31;99553.38;5099184;27;20057;-63
2021/04/05 12:02:33;;;;;;;8.32;3.20;;;;;;;6.47;65.81;99549.09;5116624;27;20034;-63
2021/04/05 12:05:08;;;;;;;4.40;2.95;;;;;;;6.50;65.50;99554.34;5099656;27;20031;-63
2021/04/05 12:07:38;;;;;;;9.45;3.10;;;;;;;6.48;65.09;99563.72;5099263;27;20031;-63
2021/04/05 12:10:18;;;;;;;8.85;2.85;;;;;;;6.48;64.92;99563.72;5134321;27;20031;-63
2021/04/05 12:13:11;;;;;;;7.90;2.70;;;;;;;6.47;65.60;99572.28;5135312;27;20031;-63
2021/04/05 12:15:39;;;;;;;5.88;3.42;;;;;;;6.47;64.97;99562.88;5099502;27;20043;-63
2021/04/05 12:18:10;;;;;;;9.15;1.77;;;;;;;6.47;65.25;99565.44;5116186;27;20096;-63
2021/04/05 12:20:44;;;;;;;6.50;2.65;;;;;;;6.45;65.00;99561.97;5115792;28;20041;-62
2021/04/05 12:23:19;;;;;;;5.30;2.67;;;;;;;6.44;64.93;99560.22;5098774;28;20058;-63
2021/04/05 12:25:50;;;;;;;14.88;3.92;;;;;;;6.45;65.41;99569.69;5099510;28;20062;-63
2021/04/05 12:28:16;;;;;;;7.53;2.88;;;;;;;6.47;65.37;99569.72;5099192;28;20039;-63
2021/04/05 12:30:46;;;;;;;8.82;3.00;;;;;;;6.46;65.50;99558.56;5115873;28;20031;-64